sensor_id;sensor_type;location;lat;lon;timestamp;temperature;humidity
9271;DHT22;4673;53.458;9.940;2023-01-30T00:02:12;3.10;99.90
9271;DHT22;4673;53.458;9.940;2023-01-30T00:04:38;3.10;99.90
9271;DHT22;4673;53.458;9.940;2023-01-30T00:07:03;3.10;99.90
9271;DHT22;4673;53.458;9.940;2023-01-30T00:09:29;3.10;99.90
9271;DHT22;4673;53.458;9.940;2023-01-30T00:11:55;3.10;99.90
9271;DHT22;4673;53.458;9.940;2023-01-30T00:14:20;3.20;99.90
9271;DHT22;4673;53.458;9.940;2023-01-30T00:16:46;3.20;99.90
9271;DHT22;4673;53.458;9.940;2023-01-30T00:19:11;3.30;99.90
9271;DHT22;4673;53.458;9.940;2023-01-30T00:21:37;3.30;99.90
9271;DHT22;4673;53.458;9.940;2023-01-30T00:24:03;3.40;99.90
9271;DHT22;4673;53.458;9.940;2023-01-30T00:26:29;3.40;99.90
9271;DHT22;4673;53.458;9.940;2023-01-30T00:28:55;3.30;99.90
9271;DHT22;4673;53.458;9.940;2023-01-30T00:31:21;3.40;99.90
9271;DHT22;4673;53.458;9.940;2023-01-30T00:33:46;3.40;99.90
9271;DHT22;4673;53.458;9.940;2023-01-30T00:36:12;3.50;99.90
9271;DHT22;4673;53.458;9.940;2023-01-30T00:38:38;3.50;99.90
9271;DHT22;4673;53.458;9.940;2023-01-30T00:41:03;3.50;99.90
9271;DHT22;4673;53.458;9.940;2023-01-30T00:43:29;3.50;99.90
9271;DHT22;4673;53.458;9.940;2023-01-30T00:46:32;3.50;99.90
9271;DHT22;4673;53.458;9.940;2023-01-30T00:49:17;3.50;99.90
9271;DHT22;4673;53.458;9.940;2023-01-30T00:51:43;3.50;99.90
9271;DHT22;4673;53.458;9.940;2023-01-30T00:54:09;3.50;99.90
9271;DHT22;4673;53.458;9.940;2023-01-30T00:56:34;3.50;99.90
9271;DHT22;4673;53.458;9.940;2023-01-30T00:59:00;3.50;99.90
9271;DHT22;4673;53.458;9.940;2023-01-30T01:01:26;3.60;99.90
9271;DHT22;4673;53.458;9.940;2023-01-30T01:03:51;3.60;99.90
9271;DHT22;4673;53.458;9.940;2023-01-30T01:06:17;3.60;99.90
9271;DHT22;4673;53.458;9.940;2023-01-30T01:08:43;3.60;99.90
9271;DHT22;4673;53.458;9.940;2023-01-30T01:11:08;3.60;99.90
9271;DHT22;4673;53.458;9.940;2023-01-30T01:13:34;3.60;99.90
9271;DHT22;4673;53.458;9.940;2023-01-30T01:16:00;3.70;99.90
9271;DHT22;4673;53.458;9.940;2023-01-30T01:18:25;3.80;99.90
9271;DHT22;4673;53.458;9.940;2023-01-30T01:20:51;3.80;99.90
9271;DHT22;4673;53.458;9.940;2023-01-30T01:23:17;3.80;99.90
9271;DHT22;4673;53.458;9.940;2023-01-30T01:25:42;3.90;99.90
9271;DHT22;4673;53.458;9.940;2023-01-30T01:28:08;3.80;99.90
9271;DHT22;4673;53.458;9.940;2023-01-30T01:30:34;3.80;99.90
9271;DHT22;4673;53.458;9.940;2023-01-30T01:32:59;3.90;99.90
9271;DHT22;4673;53.458;9.940;2023-01-30T01:35:25;3.90;99.90
9271;DHT22;4673;53.458;9.940;2023-01-30T01:37:54;3.90;99.90
9271;DHT22;4673;53.458;9.940;2023-01-30T01:40:21;3.90;99.90
9271;DHT22;4673;53.458;9.940;2023-01-30T01:43:18;4.00;99.90
9271;DHT22;4673;53.458;9.940;2023-01-30T01:45:44;4.00;99.90
9271;DHT22;4673;53.458;9.940;2023-01-30T01:48:20;4.00;99.90
9271;DHT22;4673;53.458;9.940;2023-01-30T01:50:54;4.00;99.90
9271;DHT22;4673;53.458;9.940;2023-01-30T01:53:25;4.10;99.90
9271;DHT22;4673;53.458;9.940;2023-01-30T01:55:56;4.10;99.90
9271;DHT22;4673;53.458;9.940;2023-01-30T01:58:30;4.10;99.90
9271;DHT22;4673;53.458;9.940;2023-01-30T02:00:58;4.10;99.90
9271;DHT22;4673;53.458;9.940;2023-01-30T02:03:26;4.10;99.90
9271;DHT22;4673;53.458;9.940;2023-01-30T02:05:56;4.10;99.90
9271;DHT22;4673;53.458;9.940;2023-01-30T02:08:36;4.20;99.90
9271;DHT22;4673;53.458;9.940;2023-01-30T02:13:28;4.20;99.90
9271;DHT22;4673;53.458;9.940;2023-01-30T02:15:57;4.20;99.90
9271;DHT22;4673;53.458;9.940;2023-01-30T02:18:23;4.20;99.90
9271;DHT22;4673;53.458;9.940;2023-01-30T02:21:26;4.20;99.90
9271;DHT22;4673;53.458;9.940;2023-01-30T02:27:21;4.30;99.90
9271;DHT22;4673;53.458;9.940;2023-01-30T02:30:14;4.30;99.90
9271;DHT22;4673;53.458;9.940;2023-01-30T02:35:45;4.30;99.90
9271;DHT22;4673;53.458;9.940;2023-01-30T02:43:42;4.40;99.90
9271;DHT22;4673;53.458;9.940;2023-01-30T02:46:14;4.40;99.90
9271;DHT22;4673;53.458;9.940;2023-01-30T02:49:05;4.40;99.90
9271;DHT22;4673;53.458;9.940;2023-01-30T02:51:37;4.50;99.90
9271;DHT22;4673;53.458;9.940;2023-01-30T02:54:05;4.50;99.90
9271;DHT22;4673;53.458;9.940;2023-01-30T02:56:52;4.50;99.90
9271;DHT22;4673;53.458;9.940;2023-01-30T02:59:40;4.50;99.90
9271;DHT22;4673;53.458;9.940;2023-01-30T03:05:30;4.60;99.90
9271;DHT22;4673;53.458;9.940;2023-01-30T03:10:51;4.70;99.90
9271;DHT22;4673;53.458;9.940;2023-01-30T03:15:59;4.70;99.90
9271;DHT22;4673;53.458;9.940;2023-01-30T03:18:27;4.70;99.90
9271;DHT22;4673;53.458;9.940;2023-01-30T03:20:53;4.70;99.90
9271;DHT22;4673;53.458;9.940;2023-01-30T03:23:19;4.80;99.90
9271;DHT22;4673;53.458;9.940;2023-01-30T03:25:45;5.00;99.90
9271;DHT22;4673;53.458;9.940;2023-01-30T03:28:15;4.80;99.90
9271;DHT22;4673;53.458;9.940;2023-01-30T03:30:41;4.90;99.90
9271;DHT22;4673;53.458;9.940;2023-01-30T03:33:07;4.80;99.90
9271;DHT22;4673;53.458;9.940;2023-01-30T03:35:32;4.90;99.90
9271;DHT22;4673;53.458;9.940;2023-01-30T03:37:58;4.90;99.90
9271;DHT22;4673;53.458;9.940;2023-01-30T03:40:24;4.90;99.90
9271;DHT22;4673;53.458;9.940;2023-01-30T03:42:50;4.90;99.90
9271;DHT22;4673;53.458;9.940;2023-01-30T03:45:15;4.90;99.90
9271;DHT22;4673;53.458;9.940;2023-01-30T03:47:41;4.90;99.90
9271;DHT22;4673;53.458;9.940;2023-01-30T03:50:07;5.00;99.90
9271;DHT22;4673;53.458;9.940;2023-01-30T03:52:34;5.00;99.90
9271;DHT22;4673;53.458;9.940;2023-01-30T03:55:00;5.00;99.90
9271;DHT22;4673;53.458;9.940;2023-01-30T03:57:25;5.00;99.90
9271;DHT22;4673;53.458;9.940;2023-01-30T03:59:51;5.00;99.90
9271;DHT22;4673;53.458;9.940;2023-01-30T04:02:17;5.00;99.90
9271;DHT22;4673;53.458;9.940;2023-01-30T04:04:50;5.00;99.90
9271;DHT22;4673;53.458;9.940;2023-01-30T04:07:16;5.10;99.90
9271;DHT22;4673;53.458;9.940;2023-01-30T04:09:42;5.10;99.90
9271;DHT22;4673;53.458;9.940;2023-01-30T04:12:08;5.10;99.90
9271;DHT22;4673;53.458;9.940;2023-01-30T04:14:33;5.10;99.90
9271;DHT22;4673;53.458;9.940;2023-01-30T04:16:59;5.10;99.90
9271;DHT22;4673;53.458;9.940;2023-01-30T04:19:24;5.10;99.90
9271;DHT22;4673;53.458;9.940;2023-01-30T04:21:50;5.20;99.90
9271;DHT22;4673;53.458;9.940;2023-01-30T04:24:16;5.30;99.90
9271;DHT22;4673;53.458;9.940;2023-01-30T04:26:41;5.20;99.90
9271;DHT22;4673;53.458;9.940;2023-01-30T04:29:07;5.20;99.90
9271;DHT22;4673;53.458;9.940;2023-01-30T04:31:33;5.30;99.90
9271;DHT22;4673;53.458;9.940;2023-01-30T04:33:58;5.30;99.90
9271;DHT22;4673;53.458;9.940;2023-01-30T04:36:24;5.30;99.90
9271;DHT22;4673;53.458;9.940;2023-01-30T04:38:49;5.30;99.90
9271;DHT22;4673;53.458;9.940;2023-01-30T04:41:15;5.20;99.90
9271;DHT22;4673;53.458;9.940;2023-01-30T04:43:41;5.30;99.90
9271;DHT22;4673;53.458;9.940;2023-01-30T04:46:07;5.30;99.90
9271;DHT22;4673;53.458;9.940;2023-01-30T04:48:32;5.30;99.90
9271;DHT22;4673;53.458;9.940;2023-01-30T04:50:58;5.30;99.90
9271;DHT22;4673;53.458;9.940;2023-01-30T04:53:24;5.20;99.90
9271;DHT22;4673;53.458;9.940;2023-01-30T04:55:50;5.20;99.90
9271;DHT22;4673;53.458;9.940;2023-01-30T04:58:17;5.20;99.90
9271;DHT22;4673;53.458;9.940;2023-01-30T05:00:44;5.20;99.90
9271;DHT22;4673;53.458;9.940;2023-01-30T05:03:09;5.20;99.90
9271;DHT22;4673;53.458;9.940;2023-01-30T05:05:35;5.20;99.90
9271;DHT22;4673;53.458;9.940;2023-01-30T05:08:01;5.20;99.90
9271;DHT22;4673;53.458;9.940;2023-01-30T05:10:26;5.10;99.90
9271;DHT22;4673;53.458;9.940;2023-01-30T05:12:52;5.10;99.90
9271;DHT22;4673;53.458;9.940;2023-01-30T05:15:18;5.10;99.90
9271;DHT22;4673;53.458;9.940;2023-01-30T05:17:43;5.10;99.90
9271;DHT22;4673;53.458;9.940;2023-01-30T05:20:09;5.10;99.90
9271;DHT22;4673;53.458;9.940;2023-01-30T05:22:35;5.00;99.90
9271;DHT22;4673;53.458;9.940;2023-01-30T05:25:01;5.00;99.90
9271;DHT22;4673;53.458;9.940;2023-01-30T05:27:26;5.00;99.90
9271;DHT22;4673;53.458;9.940;2023-01-30T05:29:52;5.00;99.90
9271;DHT22;4673;53.458;9.940;2023-01-30T05:32:19;5.00;99.90
9271;DHT22;4673;53.458;9.940;2023-01-30T05:34:45;4.90;99.90
9271;DHT22;4673;53.458;9.940;2023-01-30T05:37:12;4.90;99.90
9271;DHT22;4673;53.458;9.940;2023-01-30T05:39:38;4.90;99.90
9271;DHT22;4673;53.458;9.940;2023-01-30T05:42:04;4.80;99.90
9271;DHT22;4673;53.458;9.940;2023-01-30T05:44:30;4.80;99.90
9271;DHT22;4673;53.458;9.940;2023-01-30T05:46:55;4.80;99.90
9271;DHT22;4673;53.458;9.940;2023-01-30T05:49:21;4.70;99.90
9271;DHT22;4673;53.458;9.940;2023-01-30T05:51:47;4.70;99.90
9271;DHT22;4673;53.458;9.940;2023-01-30T05:54:13;4.70;99.90
9271;DHT22;4673;53.458;9.940;2023-01-30T05:56:39;4.60;99.90
9271;DHT22;4673;53.458;9.940;2023-01-30T05:59:04;4.60;99.90
9271;DHT22;4673;53.458;9.940;2023-01-30T06:01:30;4.40;99.90
9271;DHT22;4673;53.458;9.940;2023-01-30T06:03:57;4.50;99.90
9271;DHT22;4673;53.458;9.940;2023-01-30T06:06:23;4.40;99.90
9271;DHT22;4673;53.458;9.940;2023-01-30T06:08:53;4.40;99.90
9271;DHT22;4673;53.458;9.940;2023-01-30T06:11:19;4.30;99.90
9271;DHT22;4673;53.458;9.940;2023-01-30T06:13:45;4.20;99.90
9271;DHT22;4673;53.458;9.940;2023-01-30T06:16:13;4.20;99.90
9271;DHT22;4673;53.458;9.940;2023-01-30T06:21:31;4.10;99.90
9271;DHT22;4673;53.458;9.940;2023-01-30T06:23:56;4.10;99.90
9271;DHT22;4673;53.458;9.940;2023-01-30T06:26:22;4.10;99.90
9271;DHT22;4673;53.458;9.940;2023-01-30T06:28:48;4.10;99.90
9271;DHT22;4673;53.458;9.940;2023-01-30T06:31:14;4.10;99.90
9271;DHT22;4673;53.458;9.940;2023-01-30T06:33:43;4.10;99.90
9271;DHT22;4673;53.458;9.940;2023-01-30T06:36:09;4.10;99.90
9271;DHT22;4673;53.458;9.940;2023-01-30T06:38:43;4.00;99.90
9271;DHT22;4673;53.458;9.940;2023-01-30T06:41:18;4.10;99.90
9271;DHT22;4673;53.458;9.940;2023-01-30T06:43:44;4.10;99.90
9271;DHT22;4673;53.458;9.940;2023-01-30T06:46:10;4.00;99.90
9271;DHT22;4673;53.458;9.940;2023-01-30T06:48:36;3.90;99.90
9271;DHT22;4673;53.458;9.940;2023-01-30T06:51:02;3.80;99.90
9271;DHT22;4673;53.458;9.940;2023-01-30T06:53:30;3.70;99.90
9271;DHT22;4673;53.458;9.940;2023-01-30T06:55:59;3.90;99.90
9271;DHT22;4673;53.458;9.940;2023-01-30T06:58:28;3.80;99.90
9271;DHT22;4673;53.458;9.940;2023-01-30T07:00:56;3.90;99.90
9271;DHT22;4673;53.458;9.940;2023-01-30T07:03:22;3.80;99.90
9271;DHT22;4673;53.458;9.940;2023-01-30T07:05:51;3.70;99.90
9271;DHT22;4673;53.458;9.940;2023-01-30T07:08:20;3.80;99.90
9271;DHT22;4673;53.458;9.940;2023-01-30T07:10:46;3.80;99.90
9271;DHT22;4673;53.458;9.940;2023-01-30T07:13:12;3.90;99.90
9271;DHT22;4673;53.458;9.940;2023-01-30T07:15:38;3.80;99.90
9271;DHT22;4673;53.458;9.940;2023-01-30T07:18:04;3.70;99.90
9271;DHT22;4673;53.458;9.940;2023-01-30T07:20:30;3.80;99.90
9271;DHT22;4673;53.458;9.940;2023-01-30T07:22:59;3.80;99.90
9271;DHT22;4673;53.458;9.940;2023-01-30T07:25:26;3.90;99.90
9271;DHT22;4673;53.458;9.940;2023-01-30T07:27:53;3.90;99.90
9271;DHT22;4673;53.458;9.940;2023-01-30T07:30:19;4.00;99.90
9271;DHT22;4673;53.458;9.940;2023-01-30T07:32:52;4.10;99.90
9271;DHT22;4673;53.458;9.940;2023-01-30T07:35:19;4.10;99.90
9271;DHT22;4673;53.458;9.940;2023-01-30T07:37:46;4.00;99.90
9271;DHT22;4673;53.458;9.940;2023-01-30T07:40:13;4.10;99.90
9271;DHT22;4673;53.458;9.940;2023-01-30T07:42:38;4.10;99.90
9271;DHT22;4673;53.458;9.940;2023-01-30T07:45:04;4.10;99.90
9271;DHT22;4673;53.458;9.940;2023-01-30T07:47:30;4.10;99.90
9271;DHT22;4673;53.458;9.940;2023-01-30T07:49:56;4.10;99.90
9271;DHT22;4673;53.458;9.940;2023-01-30T07:52:21;4.20;99.90
9271;DHT22;4673;53.458;9.940;2023-01-30T07:54:47;4.30;99.90
9271;DHT22;4673;53.458;9.940;2023-01-30T07:57:12;4.30;99.90
9271;DHT22;4673;53.458;9.940;2023-01-30T07:59:38;4.30;99.90
9271;DHT22;4673;53.458;9.940;2023-01-30T08:02:05;4.40;99.90
9271;DHT22;4673;53.458;9.940;2023-01-30T08:04:31;4.50;99.90
9271;DHT22;4673;53.458;9.940;2023-01-30T08:06:59;4.60;99.90
9271;DHT22;4673;53.458;9.940;2023-01-30T08:09:24;4.80;99.90
9271;DHT22;4673;53.458;9.940;2023-01-30T08:11:50;4.80;99.90
9271;DHT22;4673;53.458;9.940;2023-01-30T08:14:16;4.90;99.90
9271;DHT22;4673;53.458;9.940;2023-01-30T08:16:42;5.20;99.90
9271;DHT22;4673;53.458;9.940;2023-01-30T08:19:07;5.10;99.90
9271;DHT22;4673;53.458;9.940;2023-01-30T08:21:33;5.10;99.90
9271;DHT22;4673;53.458;9.940;2023-01-30T08:23:59;5.00;99.90
9271;DHT22;4673;53.458;9.940;2023-01-30T08:26:25;4.90;99.90
9271;DHT22;4673;53.458;9.940;2023-01-30T08:28:55;4.90;99.90
9271;DHT22;4673;53.458;9.940;2023-01-30T08:31:21;4.70;99.90
9271;DHT22;4673;53.458;9.940;2023-01-30T08:33:47;4.80;99.90
9271;DHT22;4673;53.458;9.940;2023-01-30T08:36:13;4.80;99.90
9271;DHT22;4673;53.458;9.940;2023-01-30T08:38:39;4.80;99.90
9271;DHT22;4673;53.458;9.940;2023-01-30T08:41:05;4.80;99.90
9271;DHT22;4673;53.458;9.940;2023-01-30T08:43:34;4.90;99.90
9271;DHT22;4673;53.458;9.940;2023-01-30T08:45:59;5.10;99.90
9271;DHT22;4673;53.458;9.940;2023-01-30T08:48:25;5.10;99.90
9271;DHT22;4673;53.458;9.940;2023-01-30T08:50:55;5.10;99.90
9271;DHT22;4673;53.458;9.940;2023-01-30T08:53:21;5.00;99.90
9271;DHT22;4673;53.458;9.940;2023-01-30T08:55:51;5.10;99.90
9271;DHT22;4673;53.458;9.940;2023-01-30T08:58:18;5.10;99.90
9271;DHT22;4673;53.458;9.940;2023-01-30T09:00:44;5.10;99.90
9271;DHT22;4673;53.458;9.940;2023-01-30T09:03:12;5.10;99.90
9271;DHT22;4673;53.458;9.940;2023-01-30T09:05:43;5.10;99.90
9271;DHT22;4673;53.458;9.940;2023-01-30T09:08:12;5.20;99.90
9271;DHT22;4673;53.458;9.940;2023-01-30T09:10:37;5.40;99.90
9271;DHT22;4673;53.458;9.940;2023-01-30T09:13:03;5.40;99.90
9271;DHT22;4673;53.458;9.940;2023-01-30T09:15:30;5.40;99.90
9271;DHT22;4673;53.458;9.940;2023-01-30T09:17:57;5.40;99.90
9271;DHT22;4673;53.458;9.940;2023-01-30T09:20:25;5.60;99.90
9271;DHT22;4673;53.458;9.940;2023-01-30T09:23:00;5.40;99.10
9271;DHT22;4673;53.458;9.940;2023-01-30T09:28:35;5.40;99.50
9271;DHT22;4673;53.458;9.940;2023-01-30T09:31:06;5.50;99.50
9271;DHT22;4673;53.458;9.940;2023-01-30T09:33:35;5.50;99.40
9271;DHT22;4673;53.458;9.940;2023-01-30T09:36:01;5.50;98.50
9271;DHT22;4673;53.458;9.940;2023-01-30T09:38:27;5.60;98.60
9271;DHT22;4673;53.458;9.940;2023-01-30T09:54:39;5.70;94.90
9271;DHT22;4673;53.458;9.940;2023-01-30T09:57:18;5.90;94.90
9271;DHT22;4673;53.458;9.940;2023-01-30T09:59:59;6.00;93.80
9271;DHT22;4673;53.458;9.940;2023-01-30T10:04:55;6.10;91.30
9271;DHT22;4673;53.458;9.940;2023-01-30T10:10:10;6.20;90.60
9271;DHT22;4673;53.458;9.940;2023-01-30T10:24:02;6.70;88.30
9271;DHT22;4673;53.458;9.940;2023-01-30T10:26:30;6.70;87.20
9271;DHT22;4673;53.458;9.940;2023-01-30T10:29:30;6.60;87.20
9271;DHT22;4673;53.458;9.940;2023-01-30T10:32:18;6.40;84.10
9271;DHT22;4673;53.458;9.940;2023-01-30T10:34:50;6.50;86.50
9271;DHT22;4673;53.458;9.940;2023-01-30T10:37:34;6.70;86.70
9271;DHT22;4673;53.458;9.940;2023-01-30T10:40:15;6.80;85.20
9271;DHT22;4673;53.458;9.940;2023-01-30T10:43:14;7.00;85.00
9271;DHT22;4673;53.458;9.940;2023-01-30T10:53:46;7.40;80.90
9271;DHT22;4673;53.458;9.940;2023-01-30T10:56:17;7.50;81.00
9271;DHT22;4673;53.458;9.940;2023-01-30T11:01:44;7.40;79.90
9271;DHT22;4673;53.458;9.940;2023-01-30T11:04:21;7.10;80.90
9271;DHT22;4673;53.458;9.940;2023-01-30T11:06:50;6.70;82.10
9271;DHT22;4673;53.458;9.940;2023-01-30T11:09:16;6.30;84.40
9271;DHT22;4673;53.458;9.940;2023-01-30T11:11:49;6.10;86.90
9271;DHT22;4673;53.458;9.940;2023-01-30T11:14:15;5.70;90.10
9271;DHT22;4673;53.458;9.940;2023-01-30T11:16:49;5.30;92.90
9271;DHT22;4673;53.458;9.940;2023-01-30T11:19:18;4.90;95.40
9271;DHT22;4673;53.458;9.940;2023-01-30T11:21:52;4.80;97.70
9271;DHT22;4673;53.458;9.940;2023-01-30T11:24:45;4.30;99.90
9271;DHT22;4673;53.458;9.940;2023-01-30T11:27:28;4.10;99.90
9271;DHT22;4673;53.458;9.940;2023-01-30T11:30:14;4.10;99.90
9271;DHT22;4673;53.458;9.940;2023-01-30T11:32:45;3.90;99.90
9271;DHT22;4673;53.458;9.940;2023-01-30T11:35:27;3.70;99.90
9271;DHT22;4673;53.458;9.940;2023-01-30T11:37:53;3.80;99.90
9271;DHT22;4673;53.458;9.940;2023-01-30T11:40:26;3.70;99.90
9271;DHT22;4673;53.458;9.940;2023-01-30T11:43:08;3.80;99.90
9271;DHT22;4673;53.458;9.940;2023-01-30T11:45:38;3.80;99.90
9271;DHT22;4673;53.458;9.940;2023-01-30T11:48:13;3.80;99.90
9271;DHT22;4673;53.458;9.940;2023-01-30T11:50:42;3.80;99.90
9271;DHT22;4673;53.458;9.940;2023-01-30T11:53:39;3.90;99.90
9271;DHT22;4673;53.458;9.940;2023-01-30T11:58:41;4.20;99.90
9271;DHT22;4673;53.458;9.940;2023-01-30T12:01:11;4.50;99.90
9271;DHT22;4673;53.458;9.940;2023-01-30T12:03:44;4.70;99.90
9271;DHT22;4673;53.458;9.940;2023-01-30T12:06:20;4.70;99.90
9271;DHT22;4673;53.458;9.940;2023-01-30T12:08:51;4.60;99.90
9271;DHT22;4673;53.458;9.940;2023-01-30T12:14:34;4.70;99.90
9271;DHT22;4673;53.458;9.940;2023-01-30T12:17:22;4.70;99.90
9271;DHT22;4673;53.458;9.940;2023-01-30T12:20:04;4.60;99.90
9271;DHT22;4673;53.458;9.940;2023-01-30T12:25:22;4.70;99.90
9271;DHT22;4673;53.458;9.940;2023-01-30T12:28:13;4.60;99.90
9271;DHT22;4673;53.458;9.940;2023-01-30T12:31:03;4.60;99.90
9271;DHT22;4673;53.458;9.940;2023-01-30T12:33:32;4.50;99.90
9271;DHT22;4673;53.458;9.940;2023-01-30T12:44:25;4.10;99.90
9271;DHT22;4673;53.458;9.940;2023-01-30T12:50:01;4.00;99.90
9271;DHT22;4673;53.458;9.940;2023-01-30T13:01:21;4.50;99.90
9271;DHT22;4673;53.458;9.940;2023-01-30T13:09:35;5.00;99.90
9271;DHT22;4673;53.458;9.940;2023-01-30T13:12:40;5.10;99.90
9271;DHT22;4673;53.458;9.940;2023-01-30T13:15:21;5.20;99.90
9271;DHT22;4673;53.458;9.940;2023-01-30T13:21:00;5.40;99.90
9271;DHT22;4673;53.458;9.940;2023-01-30T13:26:43;5.30;99.50
9271;DHT22;4673;53.458;9.940;2023-01-30T13:31:51;5.40;98.30
9271;DHT22;4673;53.458;9.940;2023-01-30T13:37:05;5.40;95.50
9271;DHT22;4673;53.458;9.940;2023-01-30T13:42:01;5.60;92.60
9271;DHT22;4673;53.458;9.940;2023-01-30T13:44:31;5.70;94.10
9271;DHT22;4673;53.458;9.940;2023-01-30T13:47:17;5.60;93.30
9271;DHT22;4673;53.458;9.940;2023-01-30T13:52:41;5.70;93.00
9271;DHT22;4673;53.458;9.940;2023-01-30T14:01:08;5.70;92.30
9271;DHT22;4673;53.458;9.940;2023-01-30T14:03:34;5.70;91.00
9271;DHT22;4673;53.458;9.940;2023-01-30T14:08:47;5.80;90.50
9271;DHT22;4673;53.458;9.940;2023-01-30T14:11:32;5.80;91.90
9271;DHT22;4673;53.458;9.940;2023-01-30T14:16:49;5.80;92.00
9271;DHT22;4673;53.458;9.940;2023-01-30T14:33:01;6.00;89.80
9271;DHT22;4673;53.458;9.940;2023-01-30T14:35:31;5.90;90.40
9271;DHT22;4673;53.458;9.940;2023-01-30T14:38:24;6.00;90.70
9271;DHT22;4673;53.458;9.940;2023-01-30T14:45:59;6.10;90.40
9271;DHT22;4673;53.458;9.940;2023-01-30T14:51:29;6.20;89.20
9271;DHT22;4673;53.458;9.940;2023-01-30T14:56:55;6.10;88.30
9271;DHT22;4673;53.458;9.940;2023-01-30T14:59:37;6.10;88.40
9271;DHT22;4673;53.458;9.940;2023-01-30T15:02:18;6.10;88.00
9271;DHT22;4673;53.458;9.940;2023-01-30T15:18:34;6.10;86.80
9271;DHT22;4673;53.458;9.940;2023-01-30T15:29:49;6.00;86.10
9271;DHT22;4673;53.458;9.940;2023-01-30T15:32:19;6.00;86.30
9271;DHT22;4673;53.458;9.940;2023-01-30T15:35:19;6.00;87.00
9271;DHT22;4673;53.458;9.940;2023-01-30T15:42:36;6.00;86.10
9271;DHT22;4673;53.458;9.940;2023-01-30T15:50:26;5.90;85.70
9271;DHT22;4673;53.458;9.940;2023-01-30T15:52:51;5.90;86.10
9271;DHT22;4673;53.458;9.940;2023-01-30T15:55:30;5.90;85.10
9271;DHT22;4673;53.458;9.940;2023-01-30T15:58:15;5.80;84.60
9271;DHT22;4673;53.458;9.940;2023-01-30T16:00:47;5.70;84.50
9271;DHT22;4673;53.458;9.940;2023-01-30T16:03:23;5.70;85.20
9271;DHT22;4673;53.458;9.940;2023-01-30T16:05:54;5.70;85.00
9271;DHT22;4673;53.458;9.940;2023-01-30T16:08:23;5.70;85.30
9271;DHT22;4673;53.458;9.940;2023-01-30T16:10:50;5.90;85.90
9271;DHT22;4673;53.458;9.940;2023-01-30T16:13:20;5.60;85.40
9271;DHT22;4673;53.458;9.940;2023-01-30T16:23:52;5.60;85.80
9271;DHT22;4673;53.458;9.940;2023-01-30T16:26:19;5.60;86.30
9271;DHT22;4673;53.458;9.940;2023-01-30T16:28:47;5.60;86.40
9271;DHT22;4673;53.458;9.940;2023-01-30T16:31:14;5.60;86.40
9271;DHT22;4673;53.458;9.940;2023-01-30T16:33:41;5.60;86.60
9271;DHT22;4673;53.458;9.940;2023-01-30T16:38:49;5.50;86.60
9271;DHT22;4673;53.458;9.940;2023-01-30T16:41:35;5.40;86.50
9271;DHT22;4673;53.458;9.940;2023-01-30T16:44:21;5.40;87.10
9271;DHT22;4673;53.458;9.940;2023-01-30T16:49:48;5.50;86.20
9271;DHT22;4673;53.458;9.940;2023-01-30T16:52:22;5.50;86.10
9271;DHT22;4673;53.458;9.940;2023-01-30T16:54:57;5.40;86.00
9271;DHT22;4673;53.458;9.940;2023-01-30T16:57:37;5.40;86.00
9271;DHT22;4673;53.458;9.940;2023-01-30T17:00:07;5.30;85.60
9271;DHT22;4673;53.458;9.940;2023-01-30T17:02:39;5.20;85.60
9271;DHT22;4673;53.458;9.940;2023-01-30T17:05:16;5.10;85.70
9271;DHT22;4673;53.458;9.940;2023-01-30T17:07:43;5.10;86.00
9271;DHT22;4673;53.458;9.940;2023-01-30T17:12:56;5.00;85.80
9271;DHT22;4673;53.458;9.940;2023-01-30T17:15:27;5.00;86.00
9271;DHT22;4673;53.458;9.940;2023-01-30T17:17:53;5.00;85.90
9271;DHT22;4673;53.458;9.940;2023-01-30T17:20:29;5.10;86.10
9271;DHT22;4673;53.458;9.940;2023-01-30T17:22:59;5.10;85.30
9271;DHT22;4673;53.458;9.940;2023-01-30T17:25:33;5.20;85.00
9271;DHT22;4673;53.458;9.940;2023-01-30T17:28:00;5.20;85.20
9271;DHT22;4673;53.458;9.940;2023-01-30T17:30:26;5.20;85.10
9271;DHT22;4673;53.458;9.940;2023-01-30T17:32:51;5.20;85.60
9271;DHT22;4673;53.458;9.940;2023-01-30T17:35:17;5.20;86.50
9271;DHT22;4673;53.458;9.940;2023-01-30T17:37:43;5.20;88.00
9271;DHT22;4673;53.458;9.940;2023-01-30T17:40:15;5.00;89.90
9271;DHT22;4673;53.458;9.940;2023-01-30T17:42:41;4.80;90.90
9271;DHT22;4673;53.458;9.940;2023-01-30T17:45:07;4.70;91.30
9271;DHT22;4673;53.458;9.940;2023-01-30T17:47:32;4.70;92.10
9271;DHT22;4673;53.458;9.940;2023-01-30T17:49:58;4.60;91.90
9271;DHT22;4673;53.458;9.940;2023-01-30T17:52:35;4.70;90.20
9271;DHT22;4673;53.458;9.940;2023-01-30T17:55:01;4.70;90.40
9271;DHT22;4673;53.458;9.940;2023-01-30T17:57:26;4.70;90.90
9271;DHT22;4673;53.458;9.940;2023-01-30T18:00:16;4.70;90.60
9271;DHT22;4673;53.458;9.940;2023-01-30T18:02:43;4.60;90.50
9271;DHT22;4673;53.458;9.940;2023-01-30T18:05:17;4.50;91.00
9271;DHT22;4673;53.458;9.940;2023-01-30T18:07:43;4.60;91.00
9271;DHT22;4673;53.458;9.940;2023-01-30T18:10:19;4.60;91.40
9271;DHT22;4673;53.458;9.940;2023-01-30T18:15:48;4.60;90.50
9271;DHT22;4673;53.458;9.940;2023-01-30T18:18:16;4.50;90.40
9271;DHT22;4673;53.458;9.940;2023-01-30T18:20:42;4.60;91.00
9271;DHT22;4673;53.458;9.940;2023-01-30T18:23:08;4.50;91.40
9271;DHT22;4673;53.458;9.940;2023-01-30T18:25:34;4.50;91.20
9271;DHT22;4673;53.458;9.940;2023-01-30T18:28:00;4.30;91.00
9271;DHT22;4673;53.458;9.940;2023-01-30T18:30:34;4.20;90.90
9271;DHT22;4673;53.458;9.940;2023-01-30T18:33:00;4.40;90.40
9271;DHT22;4673;53.458;9.940;2023-01-30T18:35:25;4.40;89.60
9271;DHT22;4673;53.458;9.940;2023-01-30T18:37:51;4.40;89.50
9271;DHT22;4673;53.458;9.940;2023-01-30T18:40:18;4.40;89.50
9271;DHT22;4673;53.458;9.940;2023-01-30T18:42:44;4.30;88.50
9271;DHT22;4673;53.458;9.940;2023-01-30T18:45:10;4.20;87.70
9271;DHT22;4673;53.458;9.940;2023-01-30T18:47:35;4.20;87.30
9271;DHT22;4673;53.458;9.940;2023-01-30T18:50:04;4.10;87.70
9271;DHT22;4673;53.458;9.940;2023-01-30T18:52:30;4.10;86.70
9271;DHT22;4673;53.458;9.940;2023-01-30T18:54:56;4.00;86.70
9271;DHT22;4673;53.458;9.940;2023-01-30T18:57:21;4.20;87.10
9271;DHT22;4673;53.458;9.940;2023-01-30T18:59:47;4.00;87.30
9271;DHT22;4673;53.458;9.940;2023-01-30T19:02:13;3.90;87.50
9271;DHT22;4673;53.458;9.940;2023-01-30T19:04:39;3.90;87.00
9271;DHT22;4673;53.458;9.940;2023-01-30T19:07:05;4.00;87.30
9271;DHT22;4673;53.458;9.940;2023-01-30T19:09:31;4.00;86.70
9271;DHT22;4673;53.458;9.940;2023-01-30T19:11:56;4.20;85.90
9271;DHT22;4673;53.458;9.940;2023-01-30T19:14:40;4.30;84.70
9271;DHT22;4673;53.458;9.940;2023-01-30T19:17:06;4.40;83.40
9271;DHT22;4673;53.458;9.940;2023-01-30T19:19:32;4.50;83.30
9271;DHT22;4673;53.458;9.940;2023-01-30T19:21:57;4.60;82.30
9271;DHT22;4673;53.458;9.940;2023-01-30T19:24:23;4.60;82.30
9271;DHT22;4673;53.458;9.940;2023-01-30T19:26:49;4.70;82.50
9271;DHT22;4673;53.458;9.940;2023-01-30T19:29:15;4.70;83.10
9271;DHT22;4673;53.458;9.940;2023-01-30T19:31:41;4.60;83.40
9271;DHT22;4673;53.458;9.940;2023-01-30T19:34:07;4.60;84.10
9271;DHT22;4673;53.458;9.940;2023-01-30T19:36:35;4.50;83.90
9271;DHT22;4673;53.458;9.940;2023-01-30T19:39:01;4.30;84.10
9271;DHT22;4673;53.458;9.940;2023-01-30T19:41:32;4.10;84.80
9271;DHT22;4673;53.458;9.940;2023-01-30T19:44:00;4.00;85.10
9271;DHT22;4673;53.458;9.940;2023-01-30T19:46:26;3.90;85.80
9271;DHT22;4673;53.458;9.940;2023-01-30T19:48:53;3.80;85.60
9271;DHT22;4673;53.458;9.940;2023-01-30T19:53:54;3.80;85.50
9271;DHT22;4673;53.458;9.940;2023-01-30T19:56:21;3.80;85.70
9271;DHT22;4673;53.458;9.940;2023-01-30T19:58:49;3.90;85.50
9271;DHT22;4673;53.458;9.940;2023-01-30T20:01:17;3.90;85.50
9271;DHT22;4673;53.458;9.940;2023-01-30T20:03:43;4.00;85.50
9271;DHT22;4673;53.458;9.940;2023-01-30T20:08:39;4.00;85.50